Time;durP1;ratioP1;P1;durP2;ratioP2;P2;SDS_P1;SDS_P2;PMS_P1;PMS_P2;Temp;Humidity;BMP_temperature;BMP_pressure;BME280_temperature;BME280_humidity;BME280_pressure;Samples;Min_cycle;Max_cycle;Signal;HPM_P1;HPM_P2
2021/11/16 00:00:16;;;;;;;35.97;19.48;;;5.60;99.90;;;;;;5082184;28;20063;-77
2021/11/16 00:02:42;;;;;;;41.72;18.85;;;5.60;99.90;;;;;;5065461;28;20040;-77
2021/11/16 00:05:10;;;;;;;34.80;18.73;;;5.70;99.90;;;;;;5059274;28;20021;-79
2021/11/16 00:07:35;;;;;;;36.17;18.23;;;5.70;99.90;;;;;;5059541;28;20021;-78
2021/11/16 00:10:03;;;;;;;39.35;19.50;;;5.70;99.90;;;;;;5058406;28;20115;-77
2021/11/16 00:12:29;;;;;;;31.70;17.73;;;5.70;99.90;;;;;;5067845;28;20043;-77
2021/11/16 00:14:55;;;;;;;32.10;17.05;;;5.60;99.90;;;;;;5074202;28;20096;-77
2021/11/16 00:17:21;;;;;;;35.60;18.15;;;5.60;99.90;;;;;;5069939;28;20078;-77
2021/11/16 00:19:48;;;;;;;33.83;17.35;;;5.50;99.90;;;;;;5061033;28;20021;-77
2021/11/16 00:22:18;;;;;;;32.97;17.05;;;5.50;99.90;;;;;;5060315;28;20024;-77
2021/11/16 00:27:31;;;;;;;33.47;17.33;;;5.60;99.90;;;;;;5037429;28;20044;-77
2021/11/16 00:29:57;;;;;;;34.25;17.63;;;5.70;99.90;;;;;;5061138;28;20077;-77
2021/11/16 00:32:23;;;;;;;30.77;16.50;;;5.70;99.90;;;;;;5079124;28;20040;-78
2021/11/16 00:34:49;;;;;;;30.35;16.90;;;5.70;99.90;;;;;;5040363;28;20027;-77
2021/11/16 00:37:16;;;;;;;32.58;16.25;;;5.70;99.90;;;;;;5039922;28;20277;-77
2021/11/16 00:39:42;;;;;;;34.05;16.67;;;5.70;99.90;;;;;;5042204;28;20374;-77
2021/11/16 00:42:08;;;;;;;28.55;15.40;;;5.60;99.90;;;;;;5040232;28;20063;-77
2021/11/16 00:44:33;;;;;;;27.25;15.40;;;5.60;99.90;;;;;;5070508;28;20536;-77
2021/11/16 00:46:59;;;;;;;27.95;15.50;;;5.50;99.90;;;;;;5066002;28;20031;-77
2021/11/16 00:49:25;;;;;;;29.95;14.82;;;5.50;99.90;;;;;;5075859;28;20028;-77
2021/11/16 00:51:51;;;;;;;28.50;14.95;;;5.50;99.90;;;;;;5076181;28;20024;-79
2021/11/16 00:54:16;;;;;;;31.13;16.25;;;5.50;99.90;;;;;;5075325;28;20548;-77
2021/11/16 00:56:42;;;;;;;30.25;15.68;;;5.60;99.90;;;;;;5077468;28;20040;-78
2021/11/16 00:59:08;;;;;;;24.48;13.98;;;5.60;99.90;;;;;;5079852;28;20439;-76
2021/11/16 01:01:34;;;;;;;26.80;14.50;;;5.60;99.90;;;;;;5076419;28;20074;-77
2021/11/16 01:04:00;;;;;;;29.52;15.35;;;5.60;99.90;;;;;;5052246;28;20025;-77
2021/11/16 01:06:27;;;;;;;28.67;14.75;;;5.60;99.90;;;;;;5059365;28;20267;-77
2021/11/16 01:08:53;;;;;;;27.52;14.93;;;5.60;99.90;;;;;;5039734;28;20017;-77
2021/11/16 01:11:19;;;;;;;26.27;15.63;;;5.60;99.90;;;;;;5057925;28;20036;-78
2021/11/16 01:13:45;;;;;;;28.17;15.50;;;5.60;99.90;;;;;;5057800;28;20021;-79
2021/11/16 01:16:11;;;;;;;26.23;14.82;;;5.50;99.90;;;;;;5065105;28;20088;-78
2021/11/16 01:18:37;;;;;;;28.90;15.82;;;5.50;99.90;;;;;;5072980;28;20025;-77
2021/11/16 01:21:03;;;;;;;27.83;15.68;;;5.50;99.90;;;;;;5081273;28;20058;-77
2021/11/16 01:23:30;;;;;;;24.95;13.38;;;5.50;99.90;;;;;;5061394;28;20470;-77
2021/11/16 01:25:56;;;;;;;24.35;14.35;;;5.50;99.90;;;;;;5059102;28;20029;-77
2021/11/16 01:28:26;;;;;;;23.65;14.25;;;5.50;99.90;;;;;;5058848;28;20027;-77
2021/11/16 01:30:54;;;;;;;25.85;14.23;;;5.50;99.90;;;;;;5061067;28;20033;-77
2021/11/16 01:33:40;;;;;;;28.42;16.27;;;5.40;99.90;;;;;;5059358;28;20376;-77
2021/11/16 01:36:14;;;;;;;28.25;15.05;;;5.50;99.90;;;;;;5061582;28;20114;-78
2021/11/16 01:38:41;;;;;;;31.67;15.45;;;5.50;99.90;;;;;;5057158;28;20028;-77
2021/11/16 01:41:08;;;;;;;29.48;14.98;;;5.40;99.90;;;;;;5057033;28;20104;-77
2021/11/16 01:43:35;;;;;;;27.35;14.27;;;5.40;99.90;;;;;;5055492;28;20104;-76
2021/11/16 01:46:03;;;;;;;26.95;13.93;;;5.40;99.90;;;;;;5066579;28;20048;-77
2021/11/16 01:48:32;;;;;;;24.85;13.60;;;5.40;99.90;;;;;;5057780;28;20031;-77
2021/11/16 01:50:58;;;;;;;28.02;14.07;;;5.40;99.90;;;;;;5061969;28;20028;-77
2021/11/16 01:53:24;;;;;;;22.52;13.10;;;5.40;99.90;;;;;;5069515;28;20488;-76
2021/11/16 01:55:51;;;;;;;27.77;14.88;;;5.40;99.90;;;;;;5063220;28;20047;-79
2021/11/16 01:58:17;;;;;;;31.02;16.27;;;5.40;99.90;;;;;;5078566;28;20084;-77
2021/11/16 02:00:44;;;;;;;31.98;16.23;;;5.40;99.90;;;;;;5083715;28;20079;-77
2021/11/16 02:03:13;;;;;;;34.63;18.27;;;5.30;99.90;;;;;;5068282;28;20035;-77
2021/11/16 02:05:45;;;;;;;30.02;16.27;;;5.20;99.90;;;;;;5068052;28;20505;-77
2021/11/16 02:08:13;;;;;;;32.28;16.42;;;5.20;99.90;;;;;;5086294;28;20059;-78
2021/11/16 02:10:42;;;;;;;26.65;15.05;;;5.20;99.90;;;;;;5088878;28;20024;-77
2021/11/16 02:13:08;;;;;;;28.27;14.20;;;5.20;99.90;;;;;;5071256;28;20039;-77
2021/11/16 02:15:37;;;;;;;25.05;14.15;;;5.20;99.90;;;;;;5084757;28;20025;-77
2021/11/16 02:18:08;;;;;;;21.25;13.20;;;5.20;99.90;;;;;;5071106;28;20082;-77
2021/11/16 02:20:36;;;;;;;23.27;12.98;;;5.20;99.90;;;;;;5078626;28;20089;-77
2021/11/16 02:23:03;;;;;;;25.40;12.93;;;5.20;99.90;;;;;;5076616;28;20024;-77
2021/11/16 02:25:29;;;;;;;33.60;17.40;;;5.20;99.90;;;;;;5057936;28;20028;-76
2021/11/16 02:27:55;;;;;;;29.40;15.43;;;5.20;99.90;;;;;;5077801;28;20035;-78
2021/11/16 02:30:23;;;;;;;28.58;15.25;;;5.10;99.90;;;;;;5061198;28;20260;-77
2021/11/16 02:32:49;;;;;;;29.55;15.30;;;5.10;99.90;;;;;;5069758;28;20048;-78
2021/11/16 02:35:16;;;;;;;28.65;14.57;;;5.10;99.90;;;;;;5067400;28;20004;-77
2021/11/16 02:37:42;;;;;;;35.72;16.52;;;5.10;99.90;;;;;;5049033;28;20521;-77
2021/11/16 02:40:09;;;;;;;31.77;15.80;;;5.10;99.90;;;;;;5040156;28;20110;-77
2021/11/16 02:42:35;;;;;;;27.33;15.02;;;5.10;99.90;;;;;;5060856;28;20030;-77
2021/11/16 02:45:03;;;;;;;29.45;14.52;;;5.20;99.90;;;;;;5064330;28;20080;-77
2021/11/16 02:47:28;;;;;;;28.10;14.82;;;5.20;99.90;;;;;;5058319;28;20056;-78
2021/11/16 02:49:54;;;;;;;33.85;16.48;;;5.20;99.90;;;;;;5059408;28;20033;-76
2021/11/16 02:52:21;;;;;;;35.75;17.77;;;5.20;99.90;;;;;;5063802;28;20772;-78
2021/11/16 02:54:48;;;;;;;40.88;18.38;;;5.20;99.90;;;;;;5061701;28;20052;-78
2021/11/16 02:57:14;;;;;;;47.13;21.35;;;5.30;99.90;;;;;;5059245;28;20029;-77
2021/11/16 02:59:41;;;;;;;50.83;23.25;;;5.30;99.90;;;;;;5061877;28;20025;-77
2021/11/16 03:02:12;;;;;;;47.00;22.48;;;5.30;99.90;;;;;;5062352;28;20029;-77
2021/11/16 03:04:43;;;;;;;43.53;20.30;;;5.30;99.90;;;;;;5076398;28;20029;-77
2021/11/16 03:07:10;;;;;;;60.70;25.25;;;5.20;99.90;;;;;;5062254;28;20021;-78
2021/11/16 03:09:37;;;;;;;48.00;22.20;;;5.20;99.90;;;;;;5080182;28;20020;-77
2021/11/16 03:12:04;;;;;;;52.72;22.38;;;5.20;99.90;;;;;;5081473;28;20081;-77
2021/11/16 03:14:30;;;;;;;53.60;23.23;;;5.20;99.90;;;;;;5066204;28;20110;-77
2021/11/16 03:16:57;;;;;;;55.72;24.95;;;5.20;99.90;;;;;;5069169;28;20434;-77
2021/11/16 03:19:23;;;;;;;49.05;22.50;;;5.20;99.90;;;;;;5079416;28;20032;-78
2021/11/16 03:21:56;;;;;;;41.40;19.95;;;5.20;99.90;;;;;;5062133;28;20097;-77
2021/11/16 03:24:29;;;;;;;43.42;20.65;;;5.20;99.90;;;;;;5078657;28;20021;-77
2021/11/16 03:26:55;;;;;;;42.03;19.73;;;5.20;99.90;;;;;;5079274;28;20028;-77
2021/11/16 03:29:24;;;;;;;37.17;18.65;;;5.30;99.90;;;;;;5078820;28;20013;-77
2021/11/16 03:32:09;;;;;;;37.03;17.33;;;5.30;99.90;;;;;;5060902;28;20133;-77
2021/11/16 03:34:35;;;;;;;33.03;17.20;;;5.30;99.90;;;;;;5052773;28;20043;-77
2021/11/16 03:37:02;;;;;;;34.22;17.08;;;5.30;99.90;;;;;;5040585;28;20236;-77
2021/11/16 03:39:28;;;;;;;31.10;16.15;;;5.40;99.90;;;;;;5058853;28;20453;-77
2021/11/16 03:41:54;;;;;;;39.00;17.90;;;5.30;99.90;;;;;;5058575;28;20035;-77
2021/11/16 03:44:21;;;;;;;31.88;17.30;;;5.30;99.90;;;;;;5059649;28;20020;-77
2021/11/16 03:46:47;;;;;;;40.03;18.30;;;5.30;99.90;;;;;;5055995;28;20102;-77
2021/11/16 03:49:14;;;;;;;32.92;17.25;;;5.20;99.90;;;;;;5080666;28;20024;-77
2021/11/16 03:51:43;;;;;;;27.35;15.13;;;5.20;99.90;;;;;;5077496;28;20021;-77
2021/11/16 03:54:09;;;;;;;30.88;15.10;;;5.20;99.90;;;;;;5079134;28;20013;-78
2021/11/16 03:56:35;;;;;;;29.92;14.55;;;5.30;99.90;;;;;;5079652;28;20048;-77
2021/11/16 03:59:01;;;;;;;31.92;16.17;;;5.30;99.90;;;;;;5060343;28;20027;-78
2021/11/16 04:01:27;;;;;;;35.33;15.70;;;5.30;99.90;;;;;;5060295;28;20020;-77
2021/11/16 04:03:53;;;;;;;33.60;15.90;;;5.30;99.90;;;;;;5078408;28;20099;-78
2021/11/16 04:06:21;;;;;;;28.38;15.27;;;5.30;99.90;;;;;;5063509;28;20085;-78
2021/11/16 04:08:47;;;;;;;30.98;14.43;;;5.20;99.90;;;;;;5068588;28;20033;-77
2021/11/16 04:11:13;;;;;;;32.20;15.10;;;5.30;99.90;;;;;;5058226;28;20052;-79
2021/11/16 04:13:41;;;;;;;32.40;15.68;;;5.30;99.90;;;;;;5058877;28;20024;-78
2021/11/16 04:16:07;;;;;;;28.80;13.85;;;5.20;99.90;;;;;;5058417;28;20097;-77
2021/11/16 04:18:32;;;;;;;27.48;14.75;;;5.20;99.90;;;;;;5040071;28;20021;-78
2021/11/16 04:20:59;;;;;;;26.27;14.20;;;5.20;99.90;;;;;;5041403;28;20094;-78
2021/11/16 04:23:26;;;;;;;30.80;14.07;;;5.20;99.90;;;;;;5059868;28;20033;-79
2021/11/16 04:25:53;;;;;;;31.95;15.50;;;5.20;99.90;;;;;;5064193;28;20012;-78
2021/11/16 04:28:19;;;;;;;32.10;15.30;;;5.20;99.90;;;;;;5078703;28;20027;-77
2021/11/16 04:30:50;;;;;;;31.67;14.95;;;5.20;99.90;;;;;;5054684;28;20017;-78
2021/11/16 04:33:18;;;;;;;37.13;17.42;;;5.20;99.90;;;;;;5064563;28;20331;-77
2021/11/16 04:35:44;;;;;;;36.85;17.48;;;5.20;99.90;;;;;;5075895;28;20370;-76
2021/11/16 04:38:13;;;;;;;36.05;17.50;;;5.30;99.90;;;;;;5064892;28;20028;-76
2021/11/16 04:40:41;;;;;;;32.42;16.50;;;5.30;99.90;;;;;;5070401;28;20025;-76
2021/11/16 04:43:11;;;;;;;29.38;14.65;;;5.30;99.90;;;;;;5077236;28;20028;-76
2021/11/16 04:45:39;;;;;;;29.23;14.60;;;5.30;99.90;;;;;;5074322;28;20028;-76
2021/11/16 04:48:17;;;;;;;36.17;16.80;;;5.30;99.90;;;;;;5073991;28;20020;-76
2021/11/16 04:51:07;;;;;;;27.73;15.35;;;5.40;99.90;;;;;;5074890;28;20024;-76
2021/11/16 05:04:29;;;;;;;34.03;16.52;;;5.40;99.90;;;;;;5057808;28;20040;-77
2021/11/16 05:06:56;;;;;;;29.00;15.15;;;5.40;99.90;;;;;;5057308;28;20025;-78
2021/11/16 05:09:22;;;;;;;32.70;16.10;;;5.40;99.90;;;;;;5068451;28;20016;-77
2021/11/16 05:11:48;;;;;;;26.75;14.20;;;5.40;99.90;;;;;;5076193;28;20028;-78
2021/11/16 05:14:14;;;;;;;30.73;15.57;;;5.40;99.90;;;;;;5076021;28;20074;-77
2021/11/16 05:16:40;;;;;;;29.58;15.35;;;5.40;99.90;;;;;;5075868;28;20024;-77
2021/11/16 05:19:06;;;;;;;27.90;14.55;;;5.40;99.90;;;;;;5075653;28;20338;-78
2021/11/16 05:21:32;;;;;;;29.27;15.13;;;5.40;99.90;;;;;;5059334;28;20024;-78
2021/11/16 05:24:00;;;;;;;26.85;13.50;;;5.40;99.90;;;;;;5059517;28;20031;-79
2021/11/16 05:26:28;;;;;;;30.10;15.73;;;5.50;99.90;;;;;;5083918;28;20004;-78
2021/11/16 05:28:54;;;;;;;35.67;16.65;;;5.50;99.90;;;;;;5083970;28;20081;-80
2021/11/16 05:31:21;;;;;;;32.17;15.63;;;5.50;99.90;;;;;;5039273;28;20474;-76
2021/11/16 05:33:48;;;;;;;30.63;15.73;;;5.40;99.90;;;;;;5055572;28;20529;-76
2021/11/16 05:36:16;;;;;;;31.95;16.13;;;5.40;99.90;;;;;;5037730;28;20028;-76
2021/11/16 05:38:43;;;;;;;25.30;14.20;;;5.40;99.90;;;;;;5063151;28;20016;-79
2021/11/16 05:41:09;;;;;;;28.23;13.90;;;5.40;99.90;;;;;;5075913;28;20501;-77
2021/11/16 05:43:36;;;;;;;32.38;16.65;;;5.40;99.90;;;;;;5057404;28;20032;-77
2021/11/16 05:46:03;;;;;;;30.02;15.20;;;5.40;99.90;;;;;;5069708;22;20052;-79
2021/11/16 05:48:36;;;;;;;25.77;13.68;;;5.40;99.90;;;;;;5043651;28;20040;-80
2021/11/16 05:51:03;;;;;;;27.67;13.85;;;5.30;99.90;;;;;;5051574;28;20020;-81
2021/11/16 05:53:29;;;;;;;26.67;13.40;;;5.40;99.90;;;;;;5032165;28;20552;-81
2021/11/16 05:55:55;;;;;;;25.20;14.27;;;5.40;99.90;;;;;;5066717;28;20059;-80
2021/11/16 05:58:22;;;;;;;23.88;12.15;;;5.40;99.90;;;;;;5070673;28;20037;-81
2021/11/16 06:00:49;;;;;;;25.38;12.48;;;5.40;99.90;;;;;;5047953;28;20095;-80
2021/11/16 06:03:15;;;;;;;21.33;11.73;;;5.40;99.90;;;;;;5051769;28;20049;-81
2021/11/16 06:05:41;;;;;;;22.02;13.20;;;5.40;99.90;;;;;;5050633;28;20025;-82
2021/11/16 06:08:08;;;;;;;23.02;11.98;;;5.40;99.90;;;;;;5047536;28;20021;-79
2021/11/16 06:10:34;;;;;;;23.15;11.73;;;5.30;99.90;;;;;;5024908;28;20513;-80
2021/11/16 06:13:03;;;;;;;22.08;11.68;;;5.30;99.90;;;;;;5024115;28;20029;-82
2021/11/16 06:15:29;;;;;;;25.50;13.02;;;5.30;99.90;;;;;;5058631;28;20080;-81
2021/11/16 06:17:55;;;;;;;22.38;12.48;;;5.30;99.90;;;;;;5070677;28;20006;-82
2021/11/16 06:20:27;;;;;;;22.13;12.00;;;5.30;99.90;;;;;;5053567;28;20021;-81
2021/11/16 06:22:53;;;;;;;25.02;13.00;;;5.30;99.90;;;;;;5052572;28;20037;-82
2021/11/16 06:25:18;;;;;;;25.42;12.50;;;5.30;99.90;;;;;;5054089;28;20092;-81
2021/11/16 06:27:44;;;;;;;26.13;12.75;;;5.30;99.90;;;;;;5051905;28;20031;-82
2021/11/16 06:30:11;;;;;;;20.85;10.63;;;5.30;99.90;;;;;;5069730;28;20097;-82
2021/11/16 06:32:37;;;;;;;20.27;10.45;;;5.30;99.90;;;;;;5070729;28;20035;-82
2021/11/16 06:35:03;;;;;;;20.63;10.80;;;5.30;99.90;;;;;;5068689;28;20020;-81
2021/11/16 06:37:28;;;;;;;19.00;10.63;;;5.30;99.90;;;;;;5051507;28;20048;-81
2021/11/16 06:39:55;;;;;;;23.80;11.15;;;5.30;99.90;;;;;;5051973;28;20021;-82
2021/11/16 06:42:21;;;;;;;18.73;10.57;;;5.30;99.90;;;;;;5049218;28;20037;-79
2021/11/16 06:44:48;;;;;;;17.90;9.80;;;5.30;99.90;;;;;;5050061;28;20389;-81
2021/11/16 06:47:15;;;;;;;16.88;9.55;;;5.30;99.90;;;;;;5040730;28;20037;-80
2021/11/16 06:49:45;;;;;;;17.52;9.90;;;5.40;99.90;;;;;;5049532;28;20146;-82
2021/11/16 06:52:11;;;;;;;15.18;9.20;;;5.40;99.90;;;;;;5049125;28;20032;-81
2021/11/16 06:54:36;;;;;;;14.60;8.77;;;5.40;99.90;;;;;;5067369;28;20025;-81
2021/11/16 06:57:03;;;;;;;16.63;9.18;;;5.40;99.90;;;;;;5033057;28;20087;-82
2021/11/16 06:59:29;;;;;;;15.90;9.15;;;5.40;99.90;;;;;;5029513;28;20025;-82
2021/11/16 07:01:55;;;;;;;16.67;9.10;;;5.50;99.90;;;;;;5029589;28;20025;-82
2021/11/16 07:04:21;;;;;;;13.57;7.55;;;5.50;99.90;;;;;;5047994;28;20021;-81
2021/11/16 07:06:53;;;;;;;13.85;8.32;;;5.50;99.90;;;;;;5047154;28;20040;-82
2021/11/16 07:09:20;;;;;;;17.85;9.20;;;5.50;99.90;;;;;;5048571;28;20026;-83
2021/11/16 07:11:50;;;;;;;13.27;8.13;;;5.50;99.90;;;;;;5048315;28;20030;-84
2021/11/16 07:14:18;;;;;;;16.08;9.15;;;5.50;99.90;;;;;;5030628;28;20033;-83
2021/11/16 07:17:08;;;;;;;15.13;9.07;;;5.40;99.90;;;;;;5060424;28;20055;-83
2021/11/16 07:19:55;;;;;;;14.82;9.25;;;5.40;99.90;;;;;;5029585;28;20474;-83
2021/11/16 07:22:26;;;;;;;13.27;8.10;;;5.40;99.90;;;;;;5043606;28;20108;-84
2021/11/16 07:25:05;;;;;;;14.80;8.95;;;5.50;99.90;;;;;;5042454;28;20018;-84
2021/11/16 07:27:54;;;;;;;12.98;8.15;;;5.50;99.90;;;;;;5042550;28;20071;-83
2021/11/16 07:30:25;;;;;;;13.23;7.60;;;5.60;99.90;;;;;;5027752;28;20025;-83
2021/11/16 07:32:57;;;;;;;15.90;8.00;;;5.60;99.90;;;;;;5028990;28;20044;-84
2021/11/16 07:35:26;;;;;;;12.43;7.00;;;5.60;99.90;;;;;;5027873;28;20029;-84
2021/11/16 07:37:59;;;;;;;12.70;6.95;;;5.60;99.90;;;;;;5029782;28;20023;-83
2021/11/16 07:40:26;;;;;;;12.40;7.78;;;5.60;99.90;;;;;;5028896;28;20028;-84
2021/11/16 07:42:53;;;;;;;12.27;7.43;;;5.60;99.90;;;;;;5046378;28;20048;-83
2021/11/16 07:45:25;;;;;;;10.93;6.88;;;5.60;99.90;;;;;;5027213;28;20070;-84
2021/11/16 07:47:55;;;;;;;13.13;7.57;;;5.60;99.90;;;;;;5034798;28;20078;-84
2021/11/16 07:50:46;;;;;;;10.80;7.20;;;5.50;99.90;;;;;;5044075;28;20029;-84
2021/11/16 07:53:30;;;;;;;14.60;7.72;;;5.50;99.90;;;;;;5044744;28;20105;-83
2021/11/16 07:56:01;;;;;;;12.63;7.13;;;5.50;99.90;;;;;;5047929;28;20021;-84
2021/11/16 07:58:38;;;;;;;13.23;7.60;;;5.50;99.90;;;;;;5046336;28;20056;-83
2021/11/16 08:04:16;;;;;;;11.88;6.95;;;5.50;99.90;;;;;;5058910;28;20041;-84
2021/11/16 08:06:52;;;;;;;12.85;8.18;;;5.50;99.90;;;;;;5054285;28;20037;-83
2021/11/16 08:09:37;;;;;;;12.82;6.70;;;5.60;99.90;;;;;;5054038;28;20111;-83
2021/11/16 08:14:35;;;;;;;12.63;7.00;;;5.60;99.90;;;;;;5049958;28;20112;-84
2021/11/16 08:17:04;;;;;;;11.65;6.78;;;5.60;99.90;;;;;;5049284;28;20059;-84
2021/11/16 08:19:36;;;;;;;9.77;6.63;;;5.60;99.90;;;;;;5046788;28;20036;-84
2021/11/16 08:22:13;;;;;;;10.18;6.53;;;5.60;99.90;;;;;;5067474;28;20462;-84
2021/11/16 08:24:46;;;;;;;14.55;7.45;;;5.60;99.90;;;;;;5067289;28;20021;-84
2021/11/16 08:27:13;;;;;;;;;;;5.60;99.90;;;;;;5050362;28;20070;-84
2021/11/16 08:29:43;;;;;;;12.43;7.22;;;5.70;99.90;;;;;;5049546;28;19909;-85
2021/11/16 08:32:16;;;;;;;12.75;6.75;;;5.70;99.90;;;;;;5049116;28;20025;-82
2021/11/16 08:34:46;;;;;;;10.02;6.50;;;5.70;99.90;;;;;;5068797;28;20025;-83
2021/11/16 08:37:13;;;;;;;12.65;6.70;;;5.80;99.90;;;;;;5050863;28;20039;-83
2021/11/16 08:39:46;;;;;;;11.65;7.15;;;5.80;99.90;;;;;;5068390;28;20036;-84
2021/11/16 08:42:22;;;;;;;10.60;6.50;;;5.70;99.90;;;;;;5050987;28;20021;-84
2021/11/16 08:44:55;;;;;;;12.00;6.38;;;5.80;99.90;;;;;;5050853;28;20032;-84
2021/11/16 08:47:26;;;;;;;10.02;6.30;;;5.80;99.90;;;;;;5054196;28;20093;-83
2021/11/16 08:49:52;;;;;;;10.35;6.95;;;5.80;99.90;;;;;;5053073;28;20052;-83
2021/11/16 08:52:19;;;;;;;10.00;6.28;;;5.80;99.90;;;;;;5054914;28;20044;-83
2021/11/16 08:55:03;;;;;;;9.43;6.07;;;5.80;99.90;;;;;;5052495;28;20553;-82
2021/11/16 08:57:32;;;;;;;9.75;6.60;;;5.70;99.90;;;;;;5069361;28;20110;-82
2021/11/16 08:59:59;;;;;;;10.13;6.53;;;5.70;99.90;;;;;;5054131;28;20393;-82
2021/11/16 09:02:28;;;;;;;9.27;6.63;;;5.70;99.90;;;;;;5032774;28;20071;-83
2021/11/16 09:04:54;;;;;;;10.77;6.28;;;5.80;99.90;;;;;;5030948;28;20021;-82
2021/11/16 09:07:25;;;;;;;13.32;6.43;;;5.70;99.90;;;;;;5047492;28;20037;-83
2021/11/16 09:09:53;;;;;;;10.25;6.53;;;5.70;99.90;;;;;;5047903;28;20109;-82
2021/11/16 09:12:19;;;;;;;11.02;7.00;;;5.80;99.90;;;;;;5046702;28;19997;-82
2021/11/16 09:14:56;;;;;;;12.27;8.50;;;5.80;99.90;;;;;;5048349;28;20017;-82
2021/11/16 09:17:22;;;;;;;12.50;7.75;;;5.70;99.90;;;;;;5056417;28;20018;-82
2021/11/16 09:19:48;;;;;;;11.65;7.93;;;5.70;99.90;;;;;;5042812;28;20044;-84
2021/11/16 09:22:19;;;;;;;12.25;7.85;;;5.70;99.90;;;;;;5031314;28;20036;-83
2021/11/16 09:24:48;;;;;;;11.18;7.22;;;5.60;99.90;;;;;;5031114;28;20089;-83
2021/11/16 09:27:36;;;;;;;12.95;6.93;;;5.70;99.90;;;;;;5053027;28;20026;-82
2021/11/16 09:30:04;;;;;;;13.10;7.50;;;5.70;99.90;;;;;;5051811;28;20017;-84
2021/11/16 09:32:30;;;;;;;12.70;7.38;;;5.70;99.90;;;;;;5047217;28;20064;-82
2021/11/16 09:34:58;;;;;;;13.30;7.75;;;5.70;99.90;;;;;;5046931;28;20043;-82
2021/11/16 09:37:27;;;;;;;13.65;8.43;;;5.70;99.90;;;;;;5048078;28;20017;-82
2021/11/16 09:39:54;;;;;;;13.68;7.28;;;5.70;99.90;;;;;;5051396;28;20025;-82
2021/11/16 09:42:30;;;;;;;11.60;7.55;;;5.60;99.90;;;;;;5067443;28;20033;-82
2021/11/16 09:45:11;;;;;;;11.88;7.65;;;5.60;99.90;;;;;;5066881;28;20173;-83
2021/11/16 09:47:40;;;;;;;10.73;6.57;;;5.70;99.90;;;;;;5049989;28;20029;-84
2021/11/16 09:50:10;;;;;;;16.30;9.32;;;5.70;99.90;;;;;;5044920;28;20086;-83
2021/11/16 09:52:46;;;;;;;12.88;7.88;;;5.70;99.90;;;;;;5046139;28;20029;-83
2021/11/16 09:55:13;;;;;;;12.15;7.72;;;5.80;99.90;;;;;;5045377;28;20025;-83
2021/11/16 09:57:51;;;;;;;12.23;7.45;;;5.90;99.90;;;;;;5046592;28;20029;-83
2021/11/16 10:00:23;;;;;;;9.80;6.38;;;5.90;99.90;;;;;;5050187;28;20017;-84
2021/11/16 10:02:59;;;;;;;11.70;7.60;;;5.90;99.90;;;;;;5050115;28;20068;-84
2021/11/16 10:05:26;;;;;;;9.75;6.63;;;5.90;99.90;;;;;;5067507;28;20263;-83
2021/11/16 10:07:59;;;;;;;12.07;6.90;;;5.90;99.90;;;;;;5049927;28;20041;-83
2021/11/16 10:10:28;;;;;;;10.93;6.95;;;5.90;99.90;;;;;;5073182;28;20013;-84
2021/11/16 10:12:58;;;;;;;9.63;6.00;;;6.00;99.90;;;;;;5055863;28;20049;-82
2021/11/16 10:15:26;;;;;;;12.98;8.15;;;6.00;99.90;;;;;;5067836;28;20036;-83
2021/11/16 10:17:52;;;;;;;14.75;8.90;;;6.00;99.90;;;;;;5058295;28;20025;-81
2021/11/16 10:20:22;;;;;;;16.40;9.25;;;6.10;99.90;;;;;;5050961;28;20037;-84
2021/11/16 10:22:50;;;;;;;17.13;9.43;;;6.10;99.90;;;;;;5053917;28;20040;-83
2021/11/16 10:25:23;;;;;;;14.77;8.90;;;6.00;99.90;;;;;;5037205;28;20025;-84
2021/11/16 10:27:53;;;;;;;11.35;7.50;;;6.00;99.90;;;;;;5035717;28;20049;-84
2021/11/16 10:30:23;;;;;;;11.73;7.20;;;6.10;99.90;;;;;;5028495;28;20113;-82
2021/11/16 10:33:08;;;;;;;10.23;6.35;;;6.20;99.90;;;;;;5028556;28;20063;-82
2021/11/16 10:35:39;;;;;;;9.10;5.43;;;6.30;99.90;;;;;;5046038;28;20045;-83
2021/11/16 10:38:08;;;;;;;8.57;5.30;;;6.40;99.90;;;;;;5046182;28;20037;-84
2021/11/16 10:40:36;;;;;;;7.13;4.78;;;6.50;99.90;;;;;;5046951;28;20100;-83
2021/11/16 10:43:03;;;;;;;10.73;5.50;;;6.50;99.90;;;;;;5030470;28;20056;-83
2021/11/16 10:45:32;;;;;;;8.07;5.50;;;6.60;99.90;;;;;;5030161;28;20044;-82
2021/11/16 10:48:05;;;;;;;8.82;5.00;;;6.70;98.60;;;;;;5054057;28;20037;-83
2021/11/16 10:50:32;;;;;;;7.47;4.90;;;6.70;99.10;;;;;;5047330;28;20104;-83
2021/11/16 10:53:11;;;;;;;9.13;5.13;;;6.70;99.20;;;;;;5047284;28;20041;-84
2021/11/16 10:55:48;;;;;;;7.28;4.82;;;6.70;99.30;;;;;;5045997;28;20056;-84
2021/11/16 10:58:20;;;;;;;9.02;5.68;;;6.80;98.20;;;;;;5047141;28;20108;-83
2021/11/16 11:00:58;;;;;;;7.63;5.53;;;6.70;98.50;;;;;;5047661;28;20022;-83
2021/11/16 11:03:28;;;;;;;9.50;5.85;;;6.80;98.70;;;;;;5050523;28;20028;-83
2021/11/16 11:06:08;;;;;;;12.85;6.32;;;6.70;98.20;;;;;;5032839;28;20029;-83
2021/11/16 11:08:37;;;;;;;12.60;6.15;;;6.70;98.30;;;;;;5032269;28;20025;-83
2021/11/16 11:11:13;;;;;;;8.93;5.95;;;6.60;98.70;;;;;;5050853;28;20040;-84
2021/11/16 11:13:39;;;;;;;12.70;6.35;;;6.60;98.80;;;;;;5032459;28;20078;-83
2021/11/16 11:16:10;;;;;;;8.85;5.35;;;6.50;99.20;;;;;;5055191;28;20030;-83
2021/11/16 11:18:39;;;;;;;9.15;5.97;;;6.50;99.70;;;;;;5040999;28;20017;-82
2021/11/16 11:21:08;;;;;;;11.93;6.50;;;6.50;99.90;;;;;;5056567;28;20056;-82
2021/11/16 11:23:48;;;;;;;11.82;6.95;;;6.50;99.40;;;;;;5031074;28;20029;-83
2021/11/16 11:31:47;;;;;;;10.10;6.13;;;6.20;99.90;;;;;;5055605;28;20052;-84
2021/11/16 11:34:13;;;;;;;9.50;5.90;;;6.20;99.90;;;;;;5070574;28;20031;-82
2021/11/16 11:36:41;;;;;;;10.38;7.15;;;6.20;99.90;;;;;;5070593;28;20081;-82
2021/11/16 11:39:20;;;;;;;8.93;6.38;;;6.20;99.90;;;;;;5074168;28;20009;-82
2021/11/16 11:41:51;;;;;;;10.63;6.85;;;6.20;99.90;;;;;;5061242;28;20013;-83
2021/11/16 11:44:19;;;;;;;9.40;6.32;;;6.20;99.90;;;;;;5054170;28;20097;-83
2021/11/16 11:46:53;;;;;;;13.30;7.85;;;6.20;99.90;;;;;;5045679;28;20044;-82
2021/11/16 11:49:20;;;;;;;22.17;11.05;;;6.30;99.90;;;;;;5034473;28;20041;-81
2021/11/16 11:51:47;;;;;;;19.23;11.57;;;6.30;99.90;;;;;;5048986;28;20108;-84
2021/11/16 11:54:14;;;;;;;17.08;10.68;;;6.20;99.90;;;;;;5049920;28;20025;-83
2021/11/16 11:56:41;;;;;;;11.23;7.65;;;6.30;99.90;;;;;;5052000;28;20056;-83
2021/11/16 11:59:16;;;;;;;13.35;7.25;;;6.20;99.90;;;;;;5051735;28;20025;-83
2021/11/16 12:05:41;;;;;;;15.02;8.30;;;6.20;99.90;;;;;;5048344;28;20037;-81
2021/11/16 12:08:12;;;;;;;12.90;7.85;;;6.10;99.90;;;;;;5052834;28;20024;-83
2021/11/16 12:10:48;;;;;;;14.25;7.95;;;6.00;99.90;;;;;;5051258;28;20068;-82
2021/11/16 12:13:23;;;;;;;13.63;8.85;;;6.10;99.90;;;;;;5045121;28;20318;-83
2021/11/16 12:16:09;;;;;;;14.27;9.02;;;6.10;99.90;;;;;;5045355;28;20052;-83
2021/11/16 12:18:50;;;;;;;17.58;9.32;;;6.10;99.90;;;;;;5070925;28;20021;-83
2021/11/16 12:21:41;;;;;;;12.63;8.63;;;6.00;99.90;;;;;;5044992;28;20108;-83
2021/11/16 12:24:11;;;;;;;17.10;7.70;;;6.00;99.90;;;;;;5070249;28;20029;-83
2021/11/16 12:26:56;;;;;;;14.65;8.60;;;6.00;99.90;;;;;;5068434;28;20021;-83
2021/11/16 12:29:55;;;;;;;15.25;8.57;;;6.00;99.90;;;;;;5068906;28;20029;-84
2021/11/16 12:32:37;;;;;;;14.23;8.35;;;6.10;99.90;;;;;;5047476;28;20112;-84
2021/11/16 12:35:23;;;;;;;13.52;8.13;;;6.10;99.90;;;;;;5045713;28;20184;-83
2021/11/16 12:37:59;;;;;;;11.25;7.13;;;6.10;99.90;;;;;;5024105;28;20534;-83
2021/11/16 12:40:33;;;;;;;10.98;6.63;;;6.20;99.90;;;;;;5048244;28;20078;-84
2021/11/16 12:43:24;;;;;;;10.77;6.97;;;6.20;99.90;;;;;;5047346;28;20032;-84
2021/11/16 12:45:59;;;;;;;18.58;9.48;;;6.30;99.90;;;;;;5056997;28;20026;-83
2021/11/16 12:48:51;;;;;;;16.15;8.75;;;6.30;99.90;;;;;;5056124;28;20086;-83
2021/11/16 12:51:26;;;;;;;19.10;10.77;;;6.30;99.90;;;;;;5047748;28;20021;-83
2021/11/16 12:54:05;;;;;;;20.08;10.85;;;6.30;99.90;;;;;;5065272;28;20056;-84
2021/11/16 12:56:56;;;;;;;17.60;10.20;;;6.20;99.90;;;;;;5050861;28;20051;-83
2021/11/16 12:59:23;;;;;;;20.20;9.85;;;6.10;99.90;;;;;;5066227;28;20071;-83
2021/11/16 13:02:20;;;;;;;20.70;11.18;;;6.10;99.90;;;;;;5065353;28;20051;-84
2021/11/16 13:05:11;;;;;;;20.00;11.10;;;6.10;99.90;;;;;;5034841;28;20033;-82
2021/11/16 13:08:05;;;;;;;18.75;11.73;;;6.00;99.90;;;;;;5050485;28;20366;-83
2021/11/16 13:10:54;;;;;;;25.88;11.45;;;6.00;99.90;;;;;;5068180;28;20385;-83
2021/11/16 13:13:44;;;;;;;19.33;10.18;;;6.00;99.90;;;;;;5062011;28;20029;-82
2021/11/16 13:16:13;;;;;;;21.25;10.38;;;5.90;99.90;;;;;;5035731;28;20489;-83
2021/11/16 13:18:43;;;;;;;17.95;9.18;;;5.90;99.90;;;;;;5062682;28;20032;-83
2021/11/16 13:21:08;;;;;;;19.63;10.45;;;5.90;99.90;;;;;;5055502;28;20037;-81
2021/11/16 13:24:03;;;;;;;15.10;8.68;;;6.00;99.90;;;;;;5031298;28;20013;-83
2021/11/16 13:26:43;;;;;;;19.10;9.90;;;6.00;99.90;;;;;;5039028;28;20060;-81